createdAt,value
2022-09-28T00:01:34.895Z,92.40
2022-09-28T00:03:58.215Z,92.22
2022-09-28T00:06:22.474Z,92.13
2022-09-28T00:08:44.142Z,91.55
2022-09-28T00:11:08.058Z,91.41
2022-09-28T00:13:31.660Z,91.37
2022-09-28T00:16:11.114Z,90.95
2022-09-28T00:18:33.534Z,90.91
2022-09-28T00:21:15.498Z,90.52
2022-09-28T00:23:59.977Z,90.55
2022-09-28T00:26:21.597Z,91.22
2022-09-28T00:28:42.992Z,91.07
2022-09-28T00:31:04.588Z,90.62
2022-09-28T00:33:26.048Z,90.67
2022-09-28T00:35:47.495Z,90.61
2022-09-28T00:38:09.470Z,90.59
2022-09-28T00:40:31.025Z,90.66
2022-09-28T00:42:52.522Z,89.54
2022-09-28T00:45:13.991Z,89.97
2022-09-28T00:47:49.823Z,90.20
2022-09-28T00:50:18.148Z,89.85
2022-09-28T00:53:02.458Z,90.10
2022-09-28T00:55:58.886Z,90.69
2022-09-28T00:58:30.267Z,91.14
2022-09-28T01:00:54.914Z,89.86
2022-09-28T01:03:16.958Z,89.75
2022-09-28T01:05:40.007Z,89.53
2022-09-28T01:08:02.801Z,89.00
2022-09-28T01:10:24.391Z,89.26
2022-09-28T01:12:45.840Z,89.01
2022-09-28T01:15:07.664Z,89.03
2022-09-28T01:17:53.414Z,90.54
2022-09-28T01:20:27.619Z,90.40
2022-09-28T01:23:14.186Z,90.79
2022-09-28T01:26:00.567Z,90.76
2022-09-28T01:28:27.664Z,90.55
2022-09-28T01:31:12.630Z,90.57
2022-09-28T01:33:58.715Z,89.77
2022-09-28T01:36:46.453Z,89.79
2022-09-28T01:39:12.790Z,89.61
2022-09-28T01:41:40.315Z,90.10
2022-09-28T01:44:04.711Z,90.48
2022-09-28T01:46:37.936Z,90.32
2022-09-28T01:49:06.752Z,90.26
2022-09-28T01:52:00.287Z,91.08
2022-09-28T01:54:36.374Z,91.01
2022-09-28T01:57:26.063Z,91.15
2022-09-28T02:00:01.253Z,90.57
2022-09-28T02:02:29.645Z,90.81
2022-09-28T02:04:58.660Z,90.45
2022-09-28T02:07:37.451Z,90.92
2022-09-28T02:10:06.999Z,90.79
2022-09-28T02:12:37.287Z,90.18
2022-09-28T02:15:08.327Z,90.14
2022-09-28T02:17:29.799Z,90.25
2022-09-28T02:19:51.493Z,90.46
2022-09-28T02:22:33.829Z,90.98
2022-09-28T02:24:59.674Z,90.42
2022-09-28T02:27:41.248Z,90.39
2022-09-28T02:30:05.306Z,91.52
2022-09-28T02:32:28.882Z,91.68
2022-09-28T02:34:50.403Z,91.45
2022-09-28T02:37:12.543Z,93.16
2022-09-28T02:39:34.020Z,92.72
2022-09-28T02:42:05.763Z,92.58
2022-09-28T02:45:07.275Z,93.40
2022-09-28T02:47:50.547Z,92.26
2022-09-28T02:50:25.515Z,92.99
2022-09-28T02:53:24.385Z,93.41
2022-09-28T02:56:05.363Z,92.35
2022-09-28T02:58:47.933Z,92.19
2022-09-28T03:01:21.371Z,91.85
2022-09-28T03:03:55.527Z,92.41
2022-09-28T03:06:33.616Z,92.96
2022-09-28T03:09:05.741Z,94.12
2022-09-28T03:11:36.232Z,93.71
2022-09-28T03:13:58.416Z,94.68
2022-09-28T03:16:20.659Z,95.78
2022-09-28T03:18:42.941Z,95.63
2022-09-28T03:21:05.518Z,95.48
2022-09-28T03:23:26.937Z,94.68
2022-09-28T03:25:48.374Z,94.86
2022-09-28T03:28:09.799Z,94.31
2022-09-28T03:30:31.496Z,94.11
2022-09-28T03:33:00.320Z,94.05
2022-09-28T03:35:21.786Z,93.86
2022-09-28T03:37:43.186Z,93.89
2022-09-28T03:40:05.441Z,93.75
2022-09-28T03:42:26.879Z,93.58
2022-09-28T03:44:48.346Z,93.54
2022-09-28T03:47:10.487Z,93.67
2022-09-28T03:49:31.942Z,93.63
2022-09-28T03:51:53.437Z,94.01
2022-09-28T03:54:14.948Z,94.31
2022-09-28T03:56:36.403Z,94.27
2022-09-28T03:58:57.840Z,94.09
2022-09-28T04:01:19.324Z,92.85
2022-09-28T04:03:40.826Z,93.00
2022-09-28T04:06:02.323Z,93.22
2022-09-28T04:08:23.828Z,92.90
2022-09-28T04:10:46.003Z,92.70
2022-09-28T04:13:07.441Z,93.20
2022-09-28T04:15:28.874Z,94.36
2022-09-28T04:17:50.765Z,93.40
2022-09-28T04:20:12.236Z,93.53
2022-09-28T04:22:33.675Z,93.81
2022-09-28T04:24:55.099Z,93.66
2022-09-28T04:27:34.996Z,94.07
2022-09-28T04:29:56.444Z,93.48
2022-09-28T04:32:17.907Z,93.83
2022-09-28T04:34:43.740Z,93.56
2022-09-28T04:37:05.671Z,93.28
2022-09-28T04:39:27.098Z,93.48
2022-09-28T04:41:49.009Z,93.89
2022-09-28T04:44:10.464Z,94.12
2022-09-28T04:46:32.401Z,94.02
2022-09-28T04:48:53.888Z,95.19
2022-09-28T04:51:15.400Z,96.23
2022-09-28T04:53:36.826Z,97.41
2022-09-28T04:56:06.606Z,97.69
2022-09-28T04:58:29.184Z,97.93
2022-09-28T05:00:51.355Z,97.98
2022-09-28T05:03:12.837Z,96.90
2022-09-28T05:05:34.252Z,95.84
2022-09-28T05:07:59.096Z,95.41
2022-09-28T05:10:20.551Z,96.38
2022-09-28T05:12:41.984Z,95.50
2022-09-28T05:15:03.956Z,94.46
2022-09-28T05:17:25.385Z,94.34
2022-09-28T05:19:46.827Z,94.58
2022-09-28T05:22:13.891Z,94.97
2022-09-28T05:24:35.336Z,95.68
2022-09-28T05:26:56.944Z,95.45
2022-09-28T05:29:18.561Z,95.64
2022-09-28T05:31:40.270Z,95.82
2022-09-28T05:34:01.785Z,96.86
2022-09-28T05:36:23.934Z,96.64
2022-09-28T05:38:45.912Z,98.16
2022-09-28T05:41:07.433Z,98.52
2022-09-28T05:43:29.177Z,100.00
2022-09-28T05:45:55.426Z,100.00
2022-09-28T05:48:17.221Z,100.00
2022-09-28T05:50:38.652Z,100.00
2022-09-28T05:53:10.142Z,100.00
2022-09-28T05:55:32.401Z,100.00
2022-09-28T05:57:53.910Z,100.00
2022-09-28T06:00:15.376Z,100.00
2022-09-28T06:02:36.956Z,100.00
2022-09-28T06:04:58.401Z,100.00
2022-09-28T06:07:21.912Z,100.00
2022-09-28T06:09:43.862Z,100.00
2022-09-28T06:12:05.272Z,100.00
2022-09-28T06:14:26.802Z,100.00
2022-09-28T06:16:48.294Z,100.00
2022-09-28T06:19:10.565Z,100.00
2022-09-28T06:21:31.993Z,100.00
2022-09-28T06:23:53.499Z,100.00
2022-09-28T06:26:15.162Z,100.00
2022-09-28T06:28:37.416Z,100.00
2022-09-28T06:31:01.835Z,100.00
2022-09-28T06:33:25.638Z,100.00
2022-09-28T06:35:47.172Z,100.00
2022-09-28T06:38:08.823Z,100.00
2022-09-28T06:40:31.129Z,100.00
2022-09-28T06:43:21.002Z,100.00
2022-09-28T06:45:43.672Z,100.00
2022-09-28T06:48:05.660Z,100.00
2022-09-28T06:50:35.927Z,100.00
2022-09-28T06:52:57.377Z,100.00
2022-09-28T06:55:19.140Z,100.00
2022-09-28T06:57:40.590Z,100.00
2022-09-28T07:00:02.032Z,100.00
2022-09-28T07:02:23.527Z,100.00
2022-09-28T07:04:45.016Z,100.00
2022-09-28T07:07:08.994Z,100.00
2022-09-28T07:09:33.448Z,100.00
2022-09-28T07:11:55.906Z,100.00
2022-09-28T07:14:32.110Z,100.00
2022-09-28T07:17:12.502Z,100.00
2022-09-28T07:19:36.506Z,100.00
2022-09-28T07:22:04.716Z,100.00
2022-09-28T07:24:26.382Z,100.00
2022-09-28T07:26:47.846Z,100.00
2022-09-28T07:29:09.339Z,100.00
2022-09-28T07:31:32.290Z,100.00
2022-09-28T07:33:53.968Z,100.00
2022-09-28T07:36:18.515Z,100.00
2022-09-28T07:38:41.304Z,100.00
2022-09-28T07:41:11.805Z,100.00
2022-09-28T07:43:33.329Z,100.00
2022-09-28T07:45:54.985Z,100.00
2022-09-28T07:48:17.180Z,100.00
2022-09-28T07:50:38.601Z,97.70
2022-09-28T07:53:00.677Z,97.37
2022-09-28T07:55:22.099Z,98.18
2022-09-28T07:57:44.461Z,95.99
2022-09-28T08:00:09.153Z,96.24
2022-09-28T08:02:33.602Z,96.46
2022-09-28T08:04:55.024Z,97.66
2022-09-28T08:07:24.275Z,99.19
2022-09-28T08:09:46.235Z,99.05
2022-09-28T08:12:08.269Z,99.01
2022-09-28T08:14:34.316Z,98.36
2022-09-28T08:16:55.764Z,96.51
2022-09-28T08:19:17.329Z,93.10
2022-09-28T08:21:47.619Z,94.17
2022-09-28T08:24:09.050Z,95.19
2022-09-28T08:26:30.487Z,96.81
2022-09-28T08:28:51.898Z,96.51
2022-09-28T08:31:13.398Z,96.22
2022-09-28T08:33:35.418Z,96.33
2022-09-28T08:35:58.858Z,97.05
2022-09-28T08:38:20.306Z,98.69
2022-09-28T08:40:54.854Z,96.61
2022-09-28T08:43:48.427Z,96.48
2022-09-28T08:46:12.469Z,95.20
2022-09-28T08:48:52.247Z,92.10
2022-09-28T08:51:22.929Z,95.79
2022-09-28T08:54:14.365Z,96.55
2022-09-28T08:56:42.984Z,95.23
2022-09-28T08:59:09.568Z,96.51
2022-09-28T09:01:41.162Z,96.24
2022-09-28T09:04:05.264Z,97.03
2022-09-28T09:06:54.318Z,93.15
2022-09-28T09:09:47.896Z,93.69
2022-09-28T09:15:38.830Z,89.82
2022-09-28T09:18:19.842Z,88.33
2022-09-28T09:20:53.543Z,90.33
2022-09-28T09:23:39.171Z,87.34
2022-09-28T09:26:23.183Z,87.97
2022-09-28T09:28:57.974Z,90.46
2022-09-28T09:31:50.316Z,90.73
2022-09-28T09:34:30.755Z,87.61
2022-09-28T09:37:09.187Z,84.41
2022-09-28T09:39:58.806Z,85.32
2022-09-28T09:42:33.867Z,87.99
2022-09-28T09:45:10.603Z,84.21
2022-09-28T09:47:45.852Z,86.65
2022-09-28T09:50:39.921Z,84.49
2022-09-28T09:53:45.953Z,87.33
2022-09-28T09:56:18.202Z,86.58
2022-09-28T09:58:47.956Z,84.08
2022-09-28T10:01:13.900Z,85.20
2022-09-28T10:03:39.597Z,84.17
2022-09-28T10:06:09.229Z,83.63
2022-09-28T10:08:37.890Z,85.50
2022-09-28T10:11:11.190Z,77.40
2022-09-28T10:13:32.892Z,77.76
2022-09-28T10:15:55.475Z,73.75
2022-09-28T10:18:19.947Z,73.86
2022-09-28T10:20:44.985Z,73.00
2022-09-28T10:23:17.416Z,73.29
2022-09-28T10:25:38.919Z,71.23
2022-09-28T10:28:02.954Z,74.96
2022-09-28T10:30:25.657Z,72.96
2022-09-28T10:32:49.220Z,71.97
2022-09-28T10:35:40.049Z,69.65
2022-09-28T10:38:07.578Z,71.44
2022-09-28T10:40:40.508Z,75.08
2022-09-28T10:43:07.781Z,76.15
2022-09-28T10:45:35.327Z,73.44
2022-09-28T10:48:00.865Z,74.09
2022-09-28T10:50:27.417Z,72.88
2022-09-28T10:52:49.005Z,73.79
2022-09-28T10:55:25.718Z,74.41
2022-09-28T10:57:48.175Z,71.64
2022-09-28T11:00:30.605Z,71.05
2022-09-28T11:02:53.020Z,71.33
2022-09-28T11:05:22.748Z,69.97
2022-09-28T11:07:46.976Z,69.67
2022-09-28T11:10:20.493Z,70.62
2022-09-28T11:12:45.551Z,68.98
2022-09-28T11:15:12.059Z,70.66
2022-09-28T11:17:40.447Z,68.86
2022-09-28T11:20:29.240Z,69.68
2022-09-28T11:22:59.464Z,71.90
2022-09-28T11:25:24.487Z,71.73
2022-09-28T11:27:52.150Z,71.56
2022-09-28T11:30:38.391Z,72.16
2022-09-28T11:33:10.676Z,72.33
2022-09-28T11:35:51.609Z,74.65
2022-09-28T11:38:34.931Z,70.59
2022-09-28T11:41:10.239Z,64.14
2022-09-28T11:44:00.585Z,61.10
2022-09-28T11:46:33.408Z,59.44
2022-09-28T11:48:59.898Z,60.67
2022-09-28T11:51:26.741Z,60.34
2022-09-28T11:53:53.534Z,62.15
2022-09-28T11:56:17.783Z,60.04
2022-09-28T11:58:53.429Z,62.08
2022-09-28T12:01:36.336Z,59.02
2022-09-28T12:04:03.890Z,57.17
2022-09-28T12:06:35.738Z,57.70
2022-09-28T12:09:06.848Z,56.32
2022-09-28T12:11:36.152Z,59.02
2022-09-28T12:14:00.734Z,57.53
2022-09-28T12:17:00.553Z,59.05
2022-09-28T12:19:21.866Z,60.59
2022-09-28T12:22:00.204Z,63.41
2022-09-28T12:24:33.147Z,63.51
2022-09-28T12:26:58.386Z,73.16
2022-09-28T12:30:04.268Z,80.02
2022-09-28T12:32:37.520Z,81.49
2022-09-28T12:34:58.981Z,84.19
2022-09-28T12:37:29.298Z,83.92
2022-09-28T12:40:21.529Z,84.19
2022-09-28T12:43:01.443Z,82.35
2022-09-28T12:45:53.072Z,85.19
2022-09-28T12:48:19.052Z,84.42
2022-09-28T12:51:11.060Z,84.87
2022-09-28T12:53:53.329Z,86.49
2022-09-28T12:57:02.910Z,81.06
2022-09-28T12:59:46.784Z,80.99
2022-09-28T13:02:20.222Z,79.26
2022-09-28T13:05:10.204Z,77.51
2022-09-28T13:07:34.568Z,79.18
2022-09-28T13:10:33.760Z,80.26
2022-09-28T13:13:31.463Z,77.69
2022-09-28T13:16:09.645Z,71.90
2022-09-28T13:18:39.250Z,70.75
2022-09-28T13:21:05.349Z,70.00
2022-09-28T13:23:35.520Z,68.02
2022-09-28T13:26:11.013Z,70.29
2022-09-28T13:28:34.303Z,72.54
2022-09-28T13:33:33.744Z,74.06
2022-09-28T13:35:55.204Z,74.45
2022-09-28T13:38:16.543Z,76.12
2022-09-28T13:41:06.067Z,78.41
2022-09-28T13:43:35.248Z,78.40
2022-09-28T13:46:03.280Z,76.09
2022-09-28T13:48:44.893Z,75.43
2022-09-28T13:51:15.319Z,79.30
2022-09-28T13:53:45.663Z,80.83
2022-09-28T13:56:34.771Z,79.04
2022-09-28T13:59:12.194Z,80.79
2022-09-28T14:01:40.923Z,82.08
2022-09-28T14:04:19.112Z,79.70
2022-09-28T14:06:55.548Z,81.29
2022-09-28T14:09:41.016Z,82.28
2022-09-28T14:12:04.318Z,83.75
2022-09-28T14:14:43.670Z,83.65
2022-09-28T14:17:27.309Z,84.20
2022-09-28T14:20:15.144Z,87.33
2022-09-28T14:23:05.423Z,84.46
2022-09-28T14:25:31.322Z,84.14
2022-09-28T14:28:40.092Z,83.68
2022-09-28T14:31:08.587Z,82.97
2022-09-28T14:33:32.926Z,84.26
2022-09-28T14:35:57.678Z,82.46
2022-09-28T14:38:40.935Z,82.10
2022-09-28T14:41:15.118Z,80.33
2022-09-28T14:43:45.738Z,82.13
2022-09-28T14:46:19.984Z,82.05
2022-09-28T14:48:47.948Z,78.01
2022-09-28T14:51:27.518Z,79.91
2022-09-28T14:53:50.623Z,77.71
2022-09-28T14:56:14.121Z,74.11
2022-09-28T14:58:36.642Z,74.56
2022-09-28T15:01:05.364Z,77.52
2022-09-28T15:03:30.383Z,74.49
2022-09-28T15:05:52.359Z,78.86
2022-09-28T15:08:14.739Z,81.20
2022-09-28T15:10:45.472Z,78.19
2022-09-28T15:13:21.917Z,79.87
2022-09-28T15:15:51.368Z,80.02
2022-09-28T15:18:20.403Z,82.66
2022-09-28T15:20:46.873Z,81.63
2022-09-28T15:23:24.563Z,82.90
2022-09-28T15:25:52.625Z,82.59
2022-09-28T15:28:22.168Z,83.66
2022-09-28T15:30:43.823Z,83.39
2022-09-28T15:33:24.020Z,82.72
2022-09-28T15:35:59.318Z,86.79
2022-09-28T15:38:20.959Z,85.31
2022-09-28T15:40:43.276Z,85.39
2022-09-28T15:43:26.843Z,85.92
2022-09-28T15:46:02.727Z,84.40
2022-09-28T15:48:31.702Z,85.08
2022-09-28T15:51:12.220Z,84.44
2022-09-28T15:53:34.051Z,85.36
2022-09-28T15:56:01.242Z,84.33
2022-09-28T15:58:24.364Z,84.82
2022-09-28T16:00:47.719Z,85.58
2022-09-28T16:03:09.346Z,83.77
2022-09-28T16:05:53.107Z,85.13
2022-09-28T16:08:38.972Z,83.92
2022-09-28T16:11:25.879Z,85.32
2022-09-28T16:14:27.111Z,87.63
2022-09-28T16:16:51.087Z,86.98
2022-09-28T16:19:39.336Z,86.84
2022-09-28T16:22:06.390Z,86.84
2022-09-28T16:24:49.800Z,86.92
2022-09-28T16:27:25.999Z,87.69
2022-09-28T16:30:24.388Z,88.33
2022-09-28T16:32:53.511Z,87.85
2022-09-28T16:35:21.518Z,86.62
2022-09-28T16:37:43.044Z,87.91
2022-09-28T16:40:04.980Z,89.09
2022-09-28T16:42:27.862Z,89.32
2022-09-28T16:44:49.309Z,89.85
2022-09-28T16:47:10.736Z,89.22
2022-09-28T16:49:32.962Z,88.63
2022-09-28T16:51:54.477Z,89.97
2022-09-28T16:54:37.856Z,91.05
2022-09-28T16:57:00.343Z,91.94
2022-09-28T16:59:22.344Z,91.91
2022-09-28T17:01:43.975Z,91.26
2022-09-28T17:04:06.648Z,90.59
2022-09-28T17:06:28.150Z,90.37
2022-09-28T17:08:49.615Z,90.32
2022-09-28T17:11:20.484Z,89.50
2022-09-28T17:13:45.818Z,89.43
2022-09-28T17:16:12.856Z,89.34
2022-09-28T17:18:37.527Z,89.43
2022-09-28T17:21:03.302Z,90.79
2022-09-28T17:23:24.776Z,91.36
2022-09-28T17:25:46.217Z,91.05
2022-09-28T17:28:17.791Z,91.79
2022-09-28T17:30:39.273Z,92.67
2022-09-28T17:33:01.620Z,92.73
2022-09-28T17:35:24.668Z,93.15
2022-09-28T17:37:46.993Z,92.95
2022-09-28T17:40:19.341Z,92.86
2022-09-28T17:42:41.074Z,92.44
2022-09-28T17:45:02.514Z,92.98
2022-09-28T17:47:23.965Z,92.79
2022-09-28T17:49:46.111Z,94.31
2022-09-28T17:52:08.443Z,94.31
2022-09-28T17:54:29.949Z,94.51
2022-09-28T17:56:51.401Z,93.29
2022-09-28T17:59:16.093Z,92.18
2022-09-28T18:01:39.699Z,91.42
2022-09-28T18:04:03.921Z,91.12
2022-09-28T18:06:25.413Z,90.36
2022-09-28T18:08:47.009Z,89.85
2022-09-28T18:11:08.819Z,89.68
2022-09-28T18:13:30.322Z,89.21
2022-09-28T18:15:52.671Z,88.96
2022-09-28T18:18:14.232Z,87.84
2022-09-28T18:20:37.134Z,87.66
2022-09-28T18:22:58.677Z,86.86
2022-09-28T18:25:20.155Z,86.54
2022-09-28T18:27:41.728Z,86.49
2022-09-28T18:30:04.518Z,86.49
2022-09-28T18:32:26.055Z,86.20
2022-09-28T18:34:47.513Z,86.54
2022-09-28T18:37:10.076Z,86.49
2022-09-28T18:39:31.794Z,86.28
2022-09-28T18:41:53.289Z,86.06
2022-09-28T18:44:14.790Z,85.65
2022-09-28T18:46:36.720Z,85.32
2022-09-28T18:48:58.282Z,84.87
2022-09-28T18:51:20.607Z,84.90
2022-09-28T18:53:42.364Z,85.02
2022-09-28T18:56:12.346Z,84.55
2022-09-28T18:58:38.136Z,84.50
2022-09-28T19:01:18.723Z,84.73
2022-09-28T19:03:41.188Z,84.58
2022-09-28T19:06:02.789Z,84.28
2022-09-28T19:08:27.514Z,84.49
2022-09-28T19:10:49.270Z,84.67
2022-09-28T19:13:10.740Z,84.60
2022-09-28T19:15:32.624Z,84.34
2022-09-28T19:17:54.152Z,84.21
2022-09-28T19:20:16.047Z,84.01
2022-09-28T19:22:37.524Z,83.93
2022-09-28T19:24:58.992Z,83.89
2022-09-28T19:27:20.482Z,84.42
2022-09-28T19:29:42.058Z,85.46
2022-09-28T19:32:03.551Z,87.59
2022-09-28T19:34:27.073Z,87.20
2022-09-28T19:36:48.574Z,86.72
2022-09-28T19:39:14.122Z,86.87
2022-09-28T19:41:43.475Z,88.67
2022-09-28T19:44:08.433Z,88.85
2022-09-28T19:46:31.654Z,90.08
2022-09-28T19:48:53.143Z,90.64
2022-09-28T19:51:14.622Z,89.82
2022-09-28T19:53:41.069Z,89.07
2022-09-28T19:56:05.627Z,90.23
2022-09-28T19:58:33.218Z,92.41
2022-09-28T20:00:54.761Z,93.58
2022-09-28T20:03:16.990Z,94.82
2022-09-28T20:05:41.347Z,95.97
2022-09-28T20:10:29.508Z,94.68
2022-09-28T20:12:51.609Z,93.92
2022-09-28T20:15:13.067Z,92.83
2022-09-28T20:17:36.657Z,92.34
2022-09-28T20:19:58.600Z,92.30
2022-09-28T20:22:20.359Z,91.78
2022-09-28T20:24:41.796Z,91.47
2022-09-28T20:27:03.437Z,91.82
2022-09-28T20:29:25.221Z,91.96
2022-09-28T20:31:46.773Z,92.18
2022-09-28T20:34:09.396Z,91.08
2022-09-28T20:36:33.998Z,91.32
2022-09-28T20:38:57.055Z,90.82
2022-09-28T20:41:20.196Z,90.73
2022-09-28T20:43:41.691Z,90.24
2022-09-28T20:46:05.022Z,89.84
2022-09-28T20:48:27.309Z,90.51
2022-09-28T20:50:48.825Z,90.45
2022-09-28T20:53:10.267Z,90.60
2022-09-28T20:55:31.734Z,90.16
2022-09-28T20:57:53.180Z,90.00
2022-09-28T21:00:15.339Z,90.17
2022-09-28T21:02:36.818Z,89.62
2022-09-28T21:04:58.570Z,89.47
2022-09-28T21:07:20.122Z,89.05
2022-09-28T21:09:41.632Z,88.55
2022-09-28T21:12:04.344Z,88.34
2022-09-28T21:14:26.777Z,88.05
2022-09-28T21:16:48.262Z,88.17
2022-09-28T21:19:09.724Z,87.58
2022-09-28T21:21:31.424Z,87.81
2022-09-28T21:23:57.060Z,87.62
2022-09-28T21:26:25.073Z,87.63
2022-09-28T21:28:46.640Z,88.13
2022-09-28T21:31:11.276Z,87.81
2022-09-28T21:33:33.335Z,88.03
2022-09-28T21:35:54.793Z,88.16
2022-09-28T21:38:16.549Z,87.84
2022-09-28T21:40:38.025Z,88.19
2022-09-28T21:42:59.745Z,88.13
2022-09-28T21:45:21.239Z,88.93
2022-09-28T21:47:47.404Z,88.76
2022-09-28T21:50:09.243Z,88.59
2022-09-28T21:52:30.676Z,88.36
2022-09-28T21:54:52.165Z,87.93
2022-09-28T21:57:13.609Z,88.56
2022-09-28T21:59:35.136Z,88.32
2022-09-28T22:01:56.622Z,88.26
2022-09-28T22:04:18.136Z,89.46
2022-09-28T22:06:39.818Z,88.70
2022-09-28T22:09:01.304Z,90.10
2022-09-28T22:11:25.594Z,90.16
2022-09-28T22:13:49.444Z,89.76
2022-09-28T22:16:12.736Z,90.96
2022-09-28T22:18:34.590Z,90.68
2022-09-28T22:21:08.984Z,89.99
2022-09-28T22:23:30.576Z,91.04
2022-09-28T22:25:58.557Z,90.83
2022-09-28T22:28:19.992Z,90.93
2022-09-28T22:30:41.445Z,92.66
2022-09-28T22:33:03.241Z,91.17
2022-09-28T22:35:24.670Z,91.71
2022-09-28T22:37:46.126Z,92.35
2022-09-28T22:40:08.184Z,91.77
2022-09-28T22:42:29.710Z,90.94
2022-09-28T22:44:51.115Z,90.88
2022-09-28T22:47:12.804Z,91.15
2022-09-28T22:49:34.272Z,93.66
2022-09-28T22:51:55.717Z,93.37
2022-09-28T22:54:17.208Z,92.66
2022-09-28T22:56:38.662Z,92.10
2022-09-28T22:59:00.101Z,92.57
2022-09-28T23:01:26.851Z,91.68
2022-09-28T23:03:49.797Z,91.38
2022-09-28T23:06:13.380Z,91.12
2022-09-28T23:08:35.642Z,92.06
2022-09-28T23:10:57.110Z,92.42
2022-09-28T23:13:19.307Z,92.88
2022-09-28T23:15:41.120Z,91.97
2022-09-28T23:18:02.593Z,92.49
2022-09-28T23:20:24.108Z,91.67
2022-09-28T23:22:47.708Z,92.65
2022-09-28T23:25:09.426Z,91.63
2022-09-28T23:27:30.874Z,91.39
2022-09-28T23:29:54.267Z,91.14
2022-09-28T23:32:16.870Z,91.10
2022-09-28T23:34:38.374Z,90.80
2022-09-28T23:36:59.850Z,90.61
2022-09-28T23:39:21.309Z,90.51
2022-09-28T23:41:42.771Z,90.58
2022-09-28T23:44:04.625Z,90.56
2022-09-28T23:46:26.280Z,91.25
2022-09-28T23:48:48.236Z,90.73
2022-09-28T23:51:09.677Z,90.70
2022-09-28T23:53:32.347Z,90.32
2022-09-28T23:55:54.399Z,90.25
2022-09-28T23:58:15.882Z,90.23
